Time;durP1;ratioP1;P1;durP2;ratioP2;P2;SDS_P1;SDS_P2;PMS_P1;PMS_P2;Temp;Humidity;BMP_temperature;BMP_pressure;BME280_temperature;BME280_humidity;BME280_pressure;Samples;Min_cycle;Max_cycle;Signal;HPM_P1;HPM_P2
2023/05/24 00:00:11;;;;;;;;;;;12.90;99.90;;;;;;8200132;29;19965;-81
2023/05/24 00:04:13;;;;;;;;;;;12.80;99.90;;;;;;8194675;28;19915;-81
2023/05/24 00:08:15;;;;;;;;;;;12.80;99.90;;;;;;8199787;28;20017;-80
2023/05/24 00:12:15;;;;;;;;;;;13.10;99.90;;;;;;8198765;28;19916;-81
2023/05/24 00:16:16;;;;;;;;;;;13.40;99.90;;;;;;8197867;28;19922;-81
2023/05/24 00:20:19;;;;;;;;;;;12.70;99.90;;;;;;8200679;28;19910;-81
2023/05/24 00:24:19;;;;;;;;;;;12.80;99.90;;;;;;8198073;28;19910;-80
2023/05/24 00:28:20;;;;;;;;;;;12.70;99.90;;;;;;8209948;28;20406;-80
2023/05/24 00:32:20;;;;;;;;;;;13.10;99.90;;;;;;8197173;28;20553;-80
2023/05/24 00:36:21;;;;;;;;;;;12.60;99.90;;;;;;8200636;28;19914;-81
2023/05/24 00:40:21;;;;;;;;;;;12.60;99.90;;;;;;8197573;28;20380;-81
2023/05/24 00:44:22;;;;;;;;;;;12.60;99.90;;;;;;8204552;29;20009;-80
2023/05/24 00:48:27;;;;;;;;;;;12.70;99.90;;;;;;8213740;28;19923;-80
2023/05/24 00:52:28;;;;;;;;;;;12.50;99.90;;;;;;8216780;28;19922;-80
2023/05/24 00:56:28;;;;;;;;;;;12.40;99.90;;;;;;8204832;28;19927;-79
2023/05/24 01:00:29;;;;;;;;;;;13.30;99.90;;;;;;8206512;29;19918;-80
2023/05/24 01:04:31;;;;;;;;;;;12.70;99.90;;;;;;8201044;28;20001;-80
2023/05/24 01:08:38;;;;;;;;;;;12.80;99.90;;;;;;8205778;28;19911;-79
2023/05/24 01:12:56;;;;;;;;;;;12.60;99.90;;;;;;8205733;28;19910;-80
2023/05/24 01:17:05;;;;;;;;;;;12.60;99.90;;;;;;8204289;28;19929;-80
2023/05/24 01:21:14;;;;;;;;;;;12.50;99.90;;;;;;8203809;28;19918;-79
2023/05/24 01:25:21;;;;;;;;;;;12.50;99.90;;;;;;8202772;28;20327;-81
2023/05/24 01:29:22;;;;;;;;;;;12.50;99.90;;;;;;8196821;28;20546;-80
2023/05/24 01:33:23;;;;;;;;;;;12.60;99.90;;;;;;8201842;29;19910;-80
2023/05/24 01:37:23;;;;;;;;;;;12.50;99.90;;;;;;8203902;28;19927;-80
2023/05/24 01:41:38;;;;;;;;;;;12.40;99.90;;;;;;8203209;28;19997;-79
2023/05/24 01:45:43;;;;;;;;;;;12.60;99.90;;;;;;8206102;28;19915;-80
2023/05/24 01:49:47;;;;;;;;;;;12.60;99.90;;;;;;8202770;28;19919;-81
2023/05/24 01:53:49;;;;;;;;;;;12.20;99.90;;;;;;8203743;28;19933;-80
2023/05/24 01:57:50;;;;;;;;;;;12.80;99.90;;;;;;8204778;28;19910;-80
2023/05/24 02:01:51;;;;;;;;;;;12.20;99.90;;;;;;8200487;29;20496;-81
2023/05/24 02:05:51;;;;;;;;;;;12.40;99.90;;;;;;8198615;28;19910;-77
2023/05/24 02:09:51;;;;;;;;;;;12.10;99.90;;;;;;8214572;28;19981;-78
2023/05/24 02:13:52;;;;;;;;;;;12.00;99.90;;;;;;8202067;28;20438;-79
2023/05/24 02:17:53;;;;;;;;;;;11.90;99.90;;;;;;8197444;28;20384;-79
2023/05/24 02:21:53;;;;;;;;;;;11.90;99.90;;;;;;8198463;28;19919;-78
2023/05/24 02:25:55;;;;;;;;;;;12.00;99.90;;;;;;8197793;28;19969;-78
2023/05/24 02:29:56;;;;;;;;;;;11.80;99.90;;;;;;8198290;29;19965;-79
2023/05/24 02:33:57;;;;;;;;;;;12.40;99.90;;;;;;8196752;28;19937;-78
2023/05/24 02:37:57;;;;;;;;;;;11.70;99.90;;;;;;8198445;28;19957;-78
2023/05/24 02:41:58;;;;;;;;;;;11.60;99.90;;;;;;8197177;28;20551;-80
2023/05/24 02:45:58;;;;;;;;;;;11.70;99.90;;;;;;8198251;28;19993;-80
2023/05/24 02:49:59;;;;;;;;;;;11.70;99.90;;;;;;8214359;28;19992;-79
2023/05/24 02:53:59;;;;;;;;;;;11.60;99.90;;;;;;8212207;28;20006;-80
2023/05/24 02:58:00;;;;;;;;;;;11.60;99.90;;;;;;8197792;28;19961;-79
2023/05/24 03:02:00;;;;;;;;;;;11.60;99.90;;;;;;8196442;28;20039;-80
2023/05/24 03:06:01;;;;;;;;;;;11.60;99.90;;;;;;8192149;28;19966;-78
2023/05/24 03:10:01;;;;;;;;;;;11.40;99.90;;;;;;8196752;29;19914;-78
2023/05/24 03:14:02;;;;;;;;;;;11.50;99.90;;;;;;8196947;28;19973;-80
2023/05/24 03:18:02;;;;;;;;;;;11.20;99.90;;;;;;8195248;28;19911;-78
2023/05/24 03:22:03;;;;;;;;;;;11.40;99.90;;;;;;8197162;28;19915;-78
2023/05/24 03:26:03;;;;;;;;;;;11.40;99.90;;;;;;8198229;28;20461;-78
2023/05/24 03:30:05;;;;;;;;;;;11.30;99.90;;;;;;8196512;28;19974;-79
2023/05/24 03:34:05;;;;;;;;;;;11.20;99.90;;;;;;8195339;28;19965;-80
2023/05/24 03:38:06;;;;;;;;;;;11.10;99.90;;;;;;8196233;28;20335;-80
2023/05/24 03:42:06;;;;;;;;;;;11.00;99.90;;;;;;8201533;28;19914;-78
2023/05/24 03:46:07;;;;;;;;;;;10.90;99.90;;;;;;8189308;28;19921;-78
2023/05/24 03:50:08;;;;;;;;;;;10.90;99.90;;;;;;8201846;28;19925;-80
2023/05/24 03:54:08;;;;;;;;;;;11.10;99.90;;;;;;8193810;28;19926;-80
2023/05/24 03:58:09;;;;;;;;;;;10.70;99.90;;;;;;8221714;28;19926;-79
2023/05/24 04:02:09;;;;;;;;;;;10.80;99.90;;;;;;8198643;28;20013;-80
2023/05/24 04:06:10;;;;;;;;;;;10.70;99.90;;;;;;8206277;28;19918;-78
2023/05/24 04:10:11;;;;;;;;;;;10.90;99.90;;;;;;8199632;28;19969;-80
2023/05/24 04:14:12;;;;;;;;;;;10.90;99.90;;;;;;8200266;28;19910;-80
2023/05/24 04:18:12;;;;;;;;;;;10.90;99.90;;;;;;8206121;28;20275;-81
2023/05/24 04:22:13;;;;;;;;;;;10.90;99.90;;;;;;8205251;28;19910;-80
2023/05/24 04:26:14;;;;;;;;;;;10.90;99.90;;;;;;8204549;28;19930;-80
2023/05/24 04:30:15;;;;;;;;;;;10.90;99.90;;;;;;8204004;28;19915;-80
2023/05/24 04:34:15;;;;;;;;;;;10.70;99.90;;;;;;8204628;28;20607;-80
2023/05/24 04:38:18;;;;;;;;;;;10.80;99.90;;;;;;8206304;28;19918;-80
2023/05/24 04:42:18;;;;;;;;;;;10.90;99.90;;;;;;8201592;28;19914;-79
2023/05/24 04:46:19;;;;;;;;;;;10.80;99.90;;;;;;8202810;28;20482;-80
2023/05/24 04:50:19;;;;;;;;;;;11.20;99.90;;;;;;8207318;28;20005;-80
2023/05/24 04:54:20;;;;;;;;;;;10.90;99.90;;;;;;8222081;28;19946;-80
2023/05/24 04:58:20;;;;;;;;;;;10.90;99.90;;;;;;8203963;28;20386;-79
2023/05/24 05:02:21;;;;;;;;;;;10.90;99.90;;;;;;8199407;29;19915;-80
2023/05/24 05:06:21;;;;;;;;;;;11.10;99.90;;;;;;8207788;28;19941;-80
2023/05/24 05:10:22;;;;;;;;;;;10.80;99.90;;;;;;8203411;29;19973;-80
2023/05/24 05:14:22;;;;;;;;;;;10.70;99.90;;;;;;8199905;29;20387;-80
2023/05/24 05:18:23;;;;;;;;;;;10.90;99.90;;;;;;8201933;28;20403;-80
2023/05/24 05:22:23;;;;;;;;;;;10.90;99.90;;;;;;8203398;28;19917;-80
2023/05/24 05:26:25;;;;;;;;;;;11.20;99.90;;;;;;8203053;28;20595;-79
2023/05/24 05:30:26;;;;;;;;;;;11.10;99.90;;;;;;8226075;28;19937;-80
2023/05/24 05:34:26;;;;;;;;;;;11.00;99.90;;;;;;8200756;29;19974;-81
2023/05/24 05:38:27;;;;;;;;;;;11.50;99.90;;;;;;8199722;28;19914;-80
2023/05/24 05:42:27;;;;;;;;;;;11.70;99.90;;;;;;8199148;28;20468;-80
2023/05/24 05:46:27;;;;;;;;;;;11.70;99.90;;;;;;8197185;28;19922;-80
2023/05/24 05:50:28;;;;;;;;;;;11.90;99.90;;;;;;8200231;28;20613;-80
2023/05/24 05:54:29;;;;;;;;;;;12.10;99.90;;;;;;8201636;28;19981;-82
2023/05/24 05:58:30;;;;;;;;;;;12.10;99.90;;;;;;8202577;28;20119;-81
2023/05/24 06:02:30;;;;;;;;;;;12.00;99.90;;;;;;8196472;28;19922;-80
2023/05/24 06:06:32;;;;;;;;;;;12.10;99.90;;;;;;8194504;28;19918;-80
2023/05/24 06:10:32;;;;;;;;;;;12.60;99.90;;;;;;8197099;29;19911;-81
2023/05/24 06:14:33;;;;;;;;;;;13.40;99.90;;;;;;8195704;28;19965;-81
2023/05/24 06:18:34;;;;;;;;;;;14.20;99.90;;;;;;8201183;28;19951;-80
2023/05/24 06:22:35;;;;;;;;;;;13.90;99.90;;;;;;8200378;28;19946;-80
2023/05/24 06:26:36;;;;;;;;;;;13.60;99.90;;;;;;8195488;28;20351;-81
2023/05/24 06:30:36;;;;;;;;;;;13.80;99.90;;;;;;8189374;29;19922;-79
2023/05/24 06:34:37;;;;;;;;;;;13.30;99.90;;;;;;8199637;29;19917;-80
2023/05/24 06:38:37;;;;;;;;;;;13.30;99.90;;;;;;8198090;28;19925;-81
2023/05/24 06:42:38;;;;;;;;;;;13.30;99.90;;;;;;8202660;28;20525;-79
2023/05/24 06:46:39;;;;;;;;;;;13.10;99.90;;;;;;8195537;28;19929;-79
2023/05/24 06:50:41;;;;;;;;;;;12.90;99.90;;;;;;8193767;28;19972;-81
2023/05/24 06:54:41;;;;;;;;;;;12.90;99.90;;;;;;8194399;28;20009;-80
2023/05/24 06:58:42;;;;;;;;;;;13.20;99.90;;;;;;8201221;28;19921;-80
2023/05/24 07:02:43;;;;;;;;;;;13.20;99.90;;;;;;8197925;28;19915;-80
2023/05/24 07:06:44;;;;;;;;;;;13.00;99.90;;;;;;8199514;28;19919;-79
2023/05/24 07:10:45;;;;;;;;;;;12.70;99.90;;;;;;8199579;28;19910;-80
2023/05/24 07:14:46;;;;;;;;;;;12.40;99.90;;;;;;8206584;28;20355;-80
2023/05/24 07:18:46;;;;;;;;;;;12.40;99.90;;;;;;8198907;28;20367;-80
2023/05/24 07:22:47;;;;;;;;;;;12.50;99.90;;;;;;8199338;28;19915;-80
2023/05/24 07:26:48;;;;;;;;;;;12.30;99.90;;;;;;8198393;28;20009;-79
2023/05/24 07:30:50;;;;;;;;;;;12.40;99.90;;;;;;8199812;29;21263;-80
2023/05/24 07:34:50;;;;;;;;;;;12.70;99.90;;;;;;8199698;28;19915;-81
2023/05/24 07:38:51;;;;;;;;;;;12.90;99.90;;;;;;8209651;28;19921;-80
2023/05/24 07:42:52;;;;;;;;;;;13.00;99.90;;;;;;8189570;28;19910;-81
2023/05/24 07:46:54;;;;;;;;;;;13.20;99.90;;;;;;8200901;28;19960;-80
2023/05/24 07:50:55;;;;;;;;;;;13.30;99.90;;;;;;8211840;28;19919;-80
2023/05/24 07:54:56;;;;;;;;;;;13.40;99.90;;;;;;8192437;28;19953;-80
2023/05/24 07:59:02;;;;;;;;;;;13.60;99.90;;;;;;8201736;28;19915;-80
2023/05/24 08:03:04;;;;;;;;;;;14.50;99.90;;;;;;8197871;28;19962;-80
2023/05/24 08:07:05;;;;;;;;;;;14.10;99.90;;;;;;8195317;28;20340;-81
2023/05/24 08:11:06;;;;;;;;;;;14.60;99.90;;;;;;8196657;29;19915;-79
2023/05/24 08:15:07;;;;;;;;;;;14.40;99.90;;;;;;8199456;28;19962;-79
2023/05/24 08:19:08;;;;;;;;;;;14.40;99.90;;;;;;8198854;28;20276;-81
2023/05/24 08:23:08;;;;;;;;;;;14.80;99.90;;;;;;8192669;28;19914;-81
2023/05/24 08:27:09;;;;;;;;;;;14.70;99.90;;;;;;8212417;28;19923;-79
2023/05/24 08:31:09;;;;;;;;;;;14.70;99.90;;;;;;8196344;29;19914;-81
2023/05/24 08:35:10;;;;;;;;;;;14.40;99.90;;;;;;8198497;28;20029;-80
2023/05/24 08:39:10;;;;;;;;;;;14.70;99.90;;;;;;8194418;28;19911;-80
2023/05/24 08:43:11;;;;;;;;;;;14.80;99.90;;;;;;8194430;29;19914;-80
2023/05/24 08:47:12;;;;;;;;;;;14.80;99.90;;;;;;8195240;28;20419;-80
2023/05/24 08:51:14;;;;;;;;;;;14.80;99.90;;;;;;8204986;28;19926;-81
2023/05/24 08:55:14;;;;;;;;;;;14.60;99.90;;;;;;8196683;28;19919;-80
2023/05/24 08:59:16;;;;;;;;;;;14.70;99.90;;;;;;8200216;28;20315;-81
2023/05/24 09:03:17;;;;;;;;;;;15.20;99.90;;;;;;8200242;28;19986;-81
2023/05/24 09:07:19;;;;;;;;;;;14.60;99.90;;;;;;8203961;28;19919;-81
2023/05/24 09:11:21;;;;;;;;;;;15.40;99.90;;;;;;8220670;28;19915;-80
2023/05/24 09:15:22;;;;;;;;;;;15.30;99.90;;;;;;8204153;28;19915;-80
2023/05/24 09:19:22;;;;;;;;;;;14.90;99.90;;;;;;8203844;29;19918;-81
2023/05/24 09:23:24;;;;;;;;;;;14.70;99.90;;;;;;8203052;29;19914;-81
2023/05/24 09:27:25;;;;;;;;;;;15.50;99.90;;;;;;8204351;28;19915;-79
2023/05/24 09:31:33;;;;;;;;;;;14.80;99.90;;;;;;8204157;29;19917;-81
2023/05/24 09:35:35;;;;;;;;;;;15.40;99.90;;;;;;8201353;28;19915;-80
2023/05/24 09:39:36;;;;;;;;;;;15.80;99.90;;;;;;8215334;28;19910;-80
2023/05/24 09:43:46;;;;;;;;;;;16.50;99.90;;;;;;8204238;28;19953;-78
2023/05/24 09:47:47;;;;;;;;;;;17.10;99.90;;;;;;8204086;28;19919;-79
2023/05/24 09:51:47;;;;;;;;;;;15.80;99.90;;;;;;8209686;28;19981;-80
2023/05/24 09:55:47;;;;;;;;;;;16.60;99.90;;;;;;8204592;28;20283;-81
2023/05/24 09:59:48;;;;;;;;;;;17.40;99.90;;;;;;8204072;28;19911;-81
2023/05/24 10:03:53;;;;;;;;;;;16.50;99.90;;;;;;8195120;29;19914;-80
2023/05/24 10:07:54;;;;;;;;;;;15.60;99.90;;;;;;8202877;28;20395;-81
2023/05/24 10:11:55;;;;;;;;;;;15.20;99.90;;;;;;8201902;28;19914;-80
2023/05/24 10:15:55;;;;;;;;;;;15.50;99.90;;;;;;8203343;28;20009;-80
2023/05/24 10:19:56;;;;;;;;;;;14.70;99.90;;;;;;8203780;28;19915;-80
2023/05/24 10:23:58;;;;;;;;;;;14.80;99.90;;;;;;8203893;28;19922;-79
2023/05/24 10:28:04;;;;;;;;;;;14.40;99.90;;;;;;8202949;28;19953;-81
2023/05/24 10:32:05;;;;;;;;;;;14.80;99.90;;;;;;8200659;28;20049;-79
2023/05/24 10:36:08;;;;;;;;;;;15.00;99.90;;;;;;8203146;28;19945;-80
2023/05/24 10:40:16;;;;;;;;;;;15.00;99.90;;;;;;8202561;29;20009;-80
2023/05/24 10:44:18;;;;;;;;;;;15.20;99.90;;;;;;8199930;29;20418;-81
2023/05/24 10:48:28;;;;;;;;;;;15.40;99.90;;;;;;8200638;28;19918;-79
2023/05/24 10:52:35;;;;;;;;;;;15.30;99.90;;;;;;8213485;28;19925;-80
2023/05/24 10:56:39;;;;;;;;;;;15.30;99.90;;;;;;8199417;28;19914;-79
2023/05/24 11:00:41;;;;;;;;;;;15.90;99.90;;;;;;8200818;28;19921;-80
2023/05/24 11:04:45;;;;;;;;;;;16.60;99.90;;;;;;8202465;28;19923;-80
2023/05/24 11:08:45;;;;;;;;;;;16.40;99.90;;;;;;8201384;28;19910;-81
2023/05/24 11:12:47;;;;;;;;;;;15.50;99.90;;;;;;8200485;29;19922;-81
2023/05/24 11:16:47;;;;;;;;;;;16.00;99.90;;;;;;8201890;28;20002;-78
2023/05/24 11:20:48;;;;;;;;;;;15.70;99.90;;;;;;8200642;28;19915;-81
2023/05/24 11:24:50;;;;;;;;;;;16.50;99.90;;;;;;8199438;28;19915;-80
2023/05/24 11:28:51;;;;;;;;;;;16.40;99.90;;;;;;8204258;28;20435;-82
2023/05/24 11:32:51;;;;;;;;;;;17.00;99.90;;;;;;8197719;28;19921;-80
2023/05/24 11:36:53;;;;;;;;;;;17.30;99.90;;;;;;8200739;28;19915;-80
2023/05/24 11:40:56;;;;;;;;;;;17.50;99.90;;;;;;8202534;28;19925;-81
2023/05/24 11:44:57;;;;;;;;;;;17.50;99.90;;;;;;8202466;28;19946;-79
2023/05/24 11:48:58;;;;;;;;;;;17.20;99.90;;;;;;8200284;28;19922;-79
2023/05/24 11:53:02;;;;;;;;;;;16.90;99.90;;;;;;8200724;29;19934;-80
2023/05/24 11:57:04;;;;;;;;;;;17.00;99.90;;;;;;8199521;28;19973;-79
2023/05/24 12:01:04;;;;;;;;;;;17.20;99.90;;;;;;8200551;28;20018;-80
2023/05/24 12:05:08;;;;;;;;;;;18.00;99.90;;;;;;8197969;28;20430;-81
2023/05/24 12:09:09;;;;;;;;;;;17.70;99.90;;;;;;8201947;28;19918;-80
2023/05/24 12:13:23;;;;;;;;;;;18.60;99.90;;;;;;8204115;28;19926;-80
2023/05/24 12:17:23;;;;;;;;;;;17.80;99.90;;;;;;8206558;28;19970;-80
2023/05/24 12:21:24;;;;;;;;;;;17.40;99.90;;;;;;8195759;28;19946;-79
2023/05/24 12:25:26;;;;;;;;;;;17.20;99.90;;;;;;8192898;28;19941;-80
2023/05/24 12:29:31;;;;;;;;;;;17.10;99.90;;;;;;8193531;28;19923;-81
2023/05/24 12:33:31;;;;;;;;;;;17.50;99.90;;;;;;8194259;29;20375;-80
2023/05/24 12:37:32;;;;;;;;;;;18.10;99.90;;;;;;8201951;28;19922;-79
2023/05/24 12:41:32;;;;;;;;;;;17.50;99.90;;;;;;8206704;28;19910;-81
2023/05/24 12:45:33;;;;;;;;;;;17.10;99.90;;;;;;8205096;28;20009;-80
2023/05/24 12:49:33;;;;;;;;;;;16.90;99.90;;;;;;8206138;28;19919;-81
2023/05/24 12:53:35;;;;;;;;;;;16.80;99.90;;;;;;8204469;29;19910;-81
2023/05/24 12:57:35;;;;;;;;;;;17.30;99.90;;;;;;8204993;28;20385;-79
2023/05/24 13:01:36;;;;;;;;;;;17.20;99.90;;;;;;8205350;28;19961;-80
2023/05/24 13:05:36;;;;;;;;;;;17.00;99.90;;;;;;8201380;28;19942;-80
2023/05/24 13:09:37;;;;;;;;;;;16.40;99.90;;;;;;8202997;29;19993;-80
2023/05/24 13:13:37;;;;;;;;;;;16.00;99.90;;;;;;8202743;29;19914;-80
2023/05/24 13:17:38;;;;;;;;;;;15.60;99.90;;;;;;8205016;28;19915;-80
2023/05/24 13:21:38;;;;;;;;;;;15.80;99.90;;;;;;8205782;28;19918;-81
2023/05/24 13:25:39;;;;;;;;;;;15.70;99.90;;;;;;8204427;28;19922;-79
2023/05/24 13:29:39;;;;;;;;;;;15.30;99.90;;;;;;8203843;29;19921;-82
2023/05/24 13:33:40;;;;;;;;;;;15.10;99.90;;;;;;8202962;28;19914;-80
2023/05/24 13:37:41;;;;;;;;;;;14.90;99.90;;;;;;8218829;28;19966;-81
2023/05/24 13:41:42;;;;;;;;;;;14.60;99.90;;;;;;8203406;28;20410;-80
2023/05/24 13:45:43;;;;;;;;;;;14.30;99.90;;;;;;8204398;28;19989;-80
2023/05/24 13:49:43;;;;;;;;;;;14.10;99.90;;;;;;8208553;28;19954;-80
2023/05/24 13:53:44;;;;;;;;;;;14.00;99.90;;;;;;8208988;28;19958;-79
2023/05/24 13:57:44;;;;;;;;;;;13.80;99.90;;;;;;8202182;28;20336;-81
2023/05/24 14:01:45;;;;;;;;;;;13.70;99.90;;;;;;8202560;29;19911;-79
2023/05/24 14:05:46;;;;;;;;;;;13.30;99.90;;;;;;8204657;28;19969;-79
2023/05/24 14:09:47;;;;;;;;;;;13.50;99.90;;;;;;8202535;28;20447;-80
2023/05/24 14:13:47;;;;;;;;;;;13.80;99.90;;;;;;8214547;28;19911;-80
2023/05/24 14:17:48;;;;;;;;;;;13.20;99.90;;;;;;8202771;28;20002;-81
2023/05/24 14:21:48;;;;;;;;;;;13.50;99.90;;;;;;8202738;28;19917;-81
2023/05/24 14:25:50;;;;;;;;;;;13.70;99.90;;;;;;8207164;28;19929;-80
2023/05/24 14:29:51;;;;;;;;;;;13.90;99.90;;;;;;8202135;29;19937;-80
2023/05/24 14:33:51;;;;;;;;;;;13.90;99.90;;;;;;8198511;29;19957;-81
2023/05/24 14:37:52;;;;;;;;;;;13.70;99.90;;;;;;8221644;28;20395;-80
2023/05/24 14:41:53;;;;;;;;;;;13.50;99.90;;;;;;8201331;28;19911;-80
2023/05/24 14:45:53;;;;;;;;;;;13.40;99.90;;;;;;8200784;28;19926;-81
2023/05/24 14:49:54;;;;;;;;;;;13.60;99.90;;;;;;8200299;28;19966;-79
2023/05/24 14:53:54;;;;;;;;;;;13.20;99.90;;;;;;8194318;29;19921;-80
2023/05/24 14:57:55;;;;;;;;;;;13.00;99.90;;;;;;8199095;28;19970;-81
2023/05/24 15:01:55;;;;;;;;;;;13.30;99.90;;;;;;8197521;28;19911;-80
2023/05/24 15:05:56;;;;;;;;;;;13.20;99.90;;;;;;8199203;28;19929;-79
2023/05/24 15:09:56;;;;;;;;;;;13.00;99.90;;;;;;8200620;28;19969;-79
2023/05/24 15:14:00;;;;;;;;;;;13.10;99.90;;;;;;8197296;28;20701;-80
2023/05/24 15:18:01;;;;;;;;;;;13.30;99.90;;;;;;8203226;28;19910;-81
2023/05/24 15:22:01;;;;;;;;;;;14.30;99.90;;;;;;8202369;28;19921;-80
2023/05/24 15:26:02;;;;;;;;;;;13.40;99.90;;;;;;8218195;28;19915;-80
2023/05/24 15:30:03;;;;;;;;;;;13.60;99.90;;;;;;8198720;28;19969;-80
2023/05/24 15:34:04;;;;;;;;;;;13.40;99.90;;;;;;8193210;28;19966;-79
2023/05/24 15:38:05;;;;;;;;;;;13.30;99.90;;;;;;8194407;28;19914;-80
2023/05/24 15:42:06;;;;;;;;;;;13.00;99.90;;;;;;8201360;28;20235;-80
2023/05/24 15:46:06;;;;;;;;;;;13.30;99.90;;;;;;8215399;28;19922;-81
2023/05/24 15:50:07;;;;;;;;;;;13.70;99.90;;;;;;8198433;28;20502;-79
2023/05/24 15:54:08;;;;;;;;;;;13.60;99.90;;;;;;8209597;28;19918;-80
2023/05/24 15:58:08;;;;;;;;;;;13.50;99.90;;;;;;8213391;28;20307;-77
2023/05/24 16:02:08;;;;;;;;;;;13.50;99.90;;;;;;8199756;29;20654;-80
2023/05/24 16:06:09;;;;;;;;;;;13.40;99.90;;;;;;8199932;28;20429;-79
2023/05/24 16:10:09;;;;;;;;;;;13.40;99.90;;;;;;8194250;28;20318;-79
2023/05/24 16:14:10;;;;;;;;;;;13.60;99.90;;;;;;8200450;29;20327;-80
2023/05/24 16:18:10;;;;;;;;;;;13.30;99.90;;;;;;8195746;28;20733;-80
2023/05/24 16:22:11;;;;;;;;;;;13.50;99.90;;;;;;8199816;28;19954;-80
2023/05/24 16:26:11;;;;;;;;;;;13.50;99.90;;;;;;8189971;28;19925;-80
2023/05/24 16:30:12;;;;;;;;;;;13.40;99.90;;;;;;8199562;28;19918;-79
2023/05/24 16:34:13;;;;;;;;;;;13.30;99.90;;;;;;8199788;28;20511;-79
2023/05/24 16:38:13;;;;;;;;;;;13.10;99.90;;;;;;8196979;28;19918;-80
2023/05/24 16:42:14;;;;;;;;;;;12.90;99.90;;;;;;8211110;28;19915;-80
2023/05/24 16:46:14;;;;;;;;;;;13.00;99.90;;;;;;8198622;28;19949;-80
2023/05/24 16:50:15;;;;;;;;;;;13.00;99.90;;;;;;8193726;28;19918;-81
2023/05/24 16:54:15;;;;;;;;;;;12.80;99.90;;;;;;8195018;28;20502;-80
2023/05/24 16:58:16;;;;;;;;;;;12.80;99.90;;;;;;8202556;28;20442;-80
2023/05/24 17:02:16;;;;;;;;;;;12.80;99.90;;;;;;8210817;28;19915;-80
2023/05/24 17:06:16;;;;;;;;;;;12.70;99.90;;;;;;8185223;29;19914;-80
2023/05/24 17:10:17;;;;;;;;;;;12.90;99.90;;;;;;8200207;28;19968;-82
2023/05/24 17:14:18;;;;;;;;;;;13.00;99.90;;;;;;8203429;28;19915;-82
2023/05/24 17:18:26;;;;;;;;;;;13.20;99.90;;;;;;8204254;28;19914;-82
2023/05/24 17:22:26;;;;;;;;;;;12.90;99.90;;;;;;8207011;28;19921;-82
2023/05/24 17:26:27;;;;;;;;;;;13.40;99.90;;;;;;8190007;28;19958;-81
2023/05/24 17:30:29;;;;;;;;;;;13.00;99.90;;;;;;8205399;28;19997;-81
2023/05/24 17:34:29;;;;;;;;;;;13.00;99.90;;;;;;8199653;28;20408;-82
2023/05/24 17:38:33;;;;;;;;;;;13.00;99.90;;;;;;8202923;28;19993;-82
2023/05/24 17:42:33;;;;;;;;;;;13.10;99.90;;;;;;8204883;28;19966;-82
2023/05/24 17:46:33;;;;;;;;;;;13.20;99.90;;;;;;8203730;28;19926;-83
2023/05/24 17:50:34;;;;;;;;;;;13.10;99.90;;;;;;8200181;28;19926;-82
2023/05/24 17:54:35;;;;;;;;;;;13.20;99.90;;;;;;8205438;28;20005;-82
2023/05/24 17:58:35;;;;;;;;;;;13.20;99.90;;;;;;8202242;28;19925;-81
2023/05/24 18:02:35;;;;;;;;;;;13.20;99.90;;;;;;8194682;28;19922;-80
2023/05/24 18:06:37;;;;;;;;;;;13.00;99.90;;;;;;8198726;28;20493;-82
2023/05/24 18:10:37;;;;;;;;;;;13.10;99.90;;;;;;8204937;29;19929;-82
2023/05/24 18:14:38;;;;;;;;;;;13.10;99.90;;;;;;8203093;29;19946;-82
2023/05/24 18:18:39;;;;;;;;;;;13.40;99.90;;;;;;8216731;28;20638;-82
2023/05/24 18:22:40;;;;;;;;;;;12.90;99.90;;;;;;8204691;28;20572;-82
2023/05/24 18:26:41;;;;;;;;;;;13.30;99.90;;;;;;8203792;28;19933;-82
2023/05/24 18:30:41;;;;;;;;;;;12.70;99.90;;;;;;8203785;28;20338;-82
2023/05/24 18:34:42;;;;;;;;;;;12.70;99.90;;;;;;8202364;28;20533;-82
2023/05/24 18:38:45;;;;;;;;;;;12.50;99.90;;;;;;8204749;28;19919;-80
2023/05/24 18:42:46;;;;;;;;;;;12.70;99.90;;;;;;8207680;28;19919;-81
2023/05/24 18:46:46;;;;;;;;;;;12.40;99.90;;;;;;8203847;28;20707;-82
2023/05/24 18:50:48;;;;;;;;;;;12.40;99.90;;;;;;8217334;28;20003;-82
2023/05/24 18:54:49;;;;;;;;;;;12.20;99.90;;;;;;8204385;28;19925;-82
2023/05/24 18:58:50;;;;;;;;;;;12.20;99.90;;;;;;8202227;28;20170;-81
2023/05/24 19:02:51;;;;;;;;;;;12.10;99.90;;;;;;8209745;28;19933;-83
2023/05/24 19:06:51;;;;;;;;;;;11.90;99.90;;;;;;8207430;28;19915;-83
2023/05/24 19:10:51;;;;;;;;;;;11.80;99.90;;;;;;8204513;28;19910;-83
2023/05/24 19:14:52;;;;;;;;;;;12.50;99.90;;;;;;8209736;28;19939;-83
2023/05/24 19:18:52;;;;;;;;;;;11.60;99.90;;;;;;8202942;28;20391;-83
2023/05/24 19:22:54;;;;;;;;;;;11.40;99.90;;;;;;8204689;28;19915;-83
2023/05/24 19:26:54;;;;;;;;;;;11.50;99.90;;;;;;8204305;28;20018;-83
2023/05/24 19:30:55;;;;;;;;;;;12.10;99.90;;;;;;8218684;28;19910;-83
2023/05/24 19:34:55;;;;;;;;;;;11.60;99.90;;;;;;8205697;28;19929;-82
2023/05/24 19:38:56;;;;;;;;;;;11.30;99.90;;;;;;8202789;28;19958;-83
2023/05/24 19:42:56;;;;;;;;;;;11.10;99.90;;;;;;8203415;29;19911;-83
2023/05/24 19:46:57;;;;;;;;;;;10.70;99.90;;;;;;8228582;28;20463;-83
2023/05/24 19:50:57;;;;;;;;;;;11.00;99.90;;;;;;8212314;28;19918;-83
2023/05/24 19:54:58;;;;;;;;;;;10.70;99.90;;;;;;8203740;28;19914;-83
2023/05/24 19:58:58;;;;;;;;;;;11.00;99.90;;;;;;8206243;28;19917;-82
2023/05/24 20:02:59;;;;;;;;;;;10.90;99.90;;;;;;8201923;28;19914;-82
2023/05/24 20:06:59;;;;;;;;;;;10.30;99.90;;;;;;8203148;28;19914;-82
2023/05/24 20:11:01;;;;;;;;;;;10.50;99.90;;;;;;8205355;28;19930;-80
2023/05/24 20:15:02;;;;;;;;;;;10.30;99.90;;;;;;8202141;28;20290;-82
2023/05/24 20:19:03;;;;;;;;;;;10.80;99.90;;;;;;8202067;28;20000;-81
2023/05/24 20:23:03;;;;;;;;;;;10.70;99.90;;;;;;8216843;28;19910;-82
2023/05/24 20:27:05;;;;;;;;;;;10.70;99.90;;;;;;8216657;28;19922;-82
2023/05/24 20:31:05;;;;;;;;;;;11.00;99.90;;;;;;8217356;28;19910;-81
2023/05/24 20:35:06;;;;;;;;;;;10.70;99.90;;;;;;8217297;28;19915;-82
2023/05/24 20:39:07;;;;;;;;;;;10.80;99.90;;;;;;8199699;28;19925;-80
2023/05/24 20:43:07;;;;;;;;;;;10.80;99.90;;;;;;8202437;28;19919;-81
2023/05/24 20:47:08;;;;;;;;;;;10.60;99.90;;;;;;8198416;28;19926;-81
2023/05/24 20:51:08;;;;;;;;;;;10.60;99.90;;;;;;8202043;28;19957;-81
2023/05/24 20:55:10;;;;;;;;;;;10.40;99.90;;;;;;8195831;28;19940;-82
2023/05/24 20:59:10;;;;;;;;;;;10.60;99.90;;;;;;8197291;28;19961;-81
2023/05/24 21:03:11;;;;;;;;;;;10.10;99.90;;;;;;8219563;28;19925;-82
2023/05/24 21:07:11;;;;;;;;;;;10.10;99.90;;;;;;8204146;28;20426;-81
2023/05/24 21:11:12;;;;;;;;;;;10.30;99.90;;;;;;8202295;29;19910;-81
2023/05/24 21:15:12;;;;;;;;;;;10.70;99.90;;;;;;8207493;28;19914;-81
2023/05/24 21:19:13;;;;;;;;;;;10.80;99.90;;;;;;8202162;28;20422;-81
2023/05/24 21:23:13;;;;;;;;;;;10.90;99.90;;;;;;8202442;28;20318;-81
2023/05/24 21:27:14;;;;;;;;;;;10.80;99.90;;;;;;8207457;28;19919;-81
2023/05/24 21:31:15;;;;;;;;;;;10.50;99.90;;;;;;8201575;28;19914;-82
2023/05/24 21:35:16;;;;;;;;;;;10.50;99.90;;;;;;8221964;28;19914;-81
2023/05/24 21:39:17;;;;;;;;;;;10.50;99.90;;;;;;8207368;28;19910;-81
2023/05/24 21:43:18;;;;;;;;;;;10.70;99.90;;;;;;8221792;28;19918;-82
2023/05/24 21:47:18;;;;;;;;;;;10.50;99.90;;;;;;8210276;28;20002;-81
2023/05/24 21:51:19;;;;;;;;;;;10.30;99.90;;;;;;8221692;28;19974;-81
2023/05/24 21:55:19;;;;;;;;;;;10.40;99.90;;;;;;8205524;28;19914;-79
2023/05/24 21:59:20;;;;;;;;;;;10.30;99.90;;;;;;8211429;28;19985;-80
2023/05/24 22:03:20;;;;;;;;;;;10.20;99.90;;;;;;8222161;28;19919;-81
2023/05/24 22:07:21;;;;;;;;;;;10.10;99.90;;;;;;8201852;28;19941;-81
2023/05/24 22:11:21;;;;;;;;;;;9.90;99.90;;;;;;8201459;28;19934;-79
2023/05/24 22:15:21;;;;;;;;;;;10.30;99.90;;;;;;8202217;28;19981;-80
2023/05/24 22:19:24;;;;;;;;;;;10.30;99.90;;;;;;8202011;28;20384;-80
2023/05/24 22:23:25;;;;;;;;;;;10.30;99.90;;;;;;8202188;28;19915;-79
2023/05/24 22:27:25;;;;;;;;;;;10.30;99.90;;;;;;8202314;28;19962;-81
2023/05/24 22:31:31;;;;;;;;;;;10.30;99.90;;;;;;8201642;29;20428;-80
2023/05/24 22:35:32;;;;;;;;;;;10.30;99.90;;;;;;8200541;28;19915;-81
2023/05/24 22:39:32;;;;;;;;;;;10.00;99.90;;;;;;8202371;28;19915;-81
2023/05/24 22:43:33;;;;;;;;;;;10.30;99.90;;;;;;8200877;28;19910;-80
2023/05/24 22:47:33;;;;;;;;;;;10.40;99.90;;;;;;8211609;28;19922;-81
2023/05/24 22:51:36;;;;;;;;;;;10.40;99.90;;;;;;8200750;29;19918;-80
2023/05/24 22:55:36;;;;;;;;;;;10.30;99.90;;;;;;8200424;28;19914;-81
2023/05/24 22:59:37;;;;;;;;;;;10.70;99.90;;;;;;8215237;28;19918;-79
2023/05/24 23:03:37;;;;;;;;;;;10.30;99.90;;;;;;8197813;29;20069;-80
2023/05/24 23:07:38;;;;;;;;;;;10.20;99.90;;;;;;8199536;28;20005;-80
2023/05/24 23:11:39;;;;;;;;;;;9.80;99.90;;;;;;8197615;29;19914;-80
2023/05/24 23:15:39;;;;;;;;;;;10.10;99.90;;;;;;8199214;29;19998;-81
2023/05/24 23:19:43;;;;;;;;;;;10.20;99.90;;;;;;8215662;28;19910;-81